Terminal Aerodrome Forecast
Issued by NWS

Home | Current Version | Previous Version | Text Only | Print | Product List | Glossary On
Versions: 1 2 3 4 5 6 7 8 9 10 11 12
000
FTUS42 TJSJ 042346
TAFJBQ
TAF
TJBQ 042346Z 0500/0524 10009KT P6SM FEW040
     FM051400 08017G25KT P6SM FEW030 SCT050
     FM052300 09009KT P6SM FEW025
      AMD NOT SKED 0502/0511=

USA.gov is the U.S. government's official web portal to all federal, state and local government web resources and services.